Time;durP1;ratioP1;P1;durP2;ratioP2;P2;SDS_P1;SDS_P2;PMS_P1;PMS_P2;Temp;Humidity;BMP_temperature;BMP_pressure;BME280_temperature;BME280_humidity;BME280_pressure;Samples;Min_cycle;Max_cycle;Signal;HPM_P1;HPM_P2
2023/03/13 00:01:23;;;;;;;29.58;5.95;;;;;;;11.43;68.52;98569.03;5010918;28;20050;-80
2023/03/13 00:03:49;;;;;;;29.40;6.15;;;;;;;11.46;68.97;98563.53;5010965;28;20046;-80
2023/03/13 00:06:16;;;;;;;22.80;5.68;;;;;;;11.49;69.13;98562.47;4992882;28;20104;-80
2023/03/13 00:08:43;;;;;;;23.35;5.10;;;;;;;11.52;69.10;98556.94;5009965;28;20081;-80
2023/03/13 00:11:11;;;;;;;30.88;5.28;;;;;;;11.53;68.97;98550.72;5010725;28;20089;-80
2023/03/13 00:13:38;;;;;;;24.50;4.97;;;;;;;11.55;68.79;98549.63;5010901;28;20108;-80
2023/03/13 00:16:10;;;;;;;25.45;5.00;;;;;;;11.55;68.35;98544.34;5010334;28;20557;-80
2023/03/13 00:18:37;;;;;;;22.90;4.50;;;;;;;11.57;68.59;98549.50;4993163;28;20062;-80
2023/03/13 00:21:08;;;;;;;25.52;5.65;;;;;;;11.54;66.52;98547.09;5011045;28;20123;-80
2023/03/13 00:23:36;;;;;;;24.98;5.60;;;;;;;11.56;68.11;98540.75;5013100;28;20056;-80
2023/03/13 00:26:12;;;;;;;30.35;6.00;;;;;;;11.56;67.46;98543.38;4999463;28;20044;-80
2023/03/13 00:28:40;;;;;;;22.67;5.40;;;;;;;11.59;68.29;98537.88;5016794;28;20577;-80
2023/03/13 00:31:09;;;;;;;29.13;6.07;;;;;;;11.57;67.60;98528.41;5017158;28;20510;-80
2023/03/13 00:33:39;;;;;;;21.90;5.13;;;;;;;11.55;67.66;98531.16;5017457;28;20521;-80
2023/03/13 00:36:11;;;;;;;19.98;4.47;;;;;;;11.55;67.86;98517.19;5016746;28;20216;-80
2023/03/13 00:38:38;;;;;;;21.50;4.45;;;;;;;11.54;68.08;98521.59;5017055;28;20054;-80
2023/03/13 00:41:07;;;;;;;18.77;4.22;;;;;;;11.53;68.14;98514.66;5017016;28;20474;-79
2023/03/13 00:43:34;;;;;;;23.15;5.10;;;;;;;11.50;68.19;98512.25;5017117;28;20486;-79
2023/03/13 00:46:01;;;;;;;24.58;5.30;;;;;;;11.51;68.19;98513.13;5016889;28;20477;-80
2023/03/13 00:48:27;;;;;;;20.70;4.18;;;;;;;11.50;68.51;98514.91;5016606;28;20521;-80
2023/03/13 00:50:54;;;;;;;23.10;5.85;;;;;;;11.49;68.61;98488.66;5017146;28;20060;-80
2023/03/13 00:53:21;;;;;;;19.33;4.88;;;;;;;11.47;69.20;98491.44;4999526;28;20498;-79
2023/03/13 00:55:55;;;;;;;28.10;5.65;;;;;;;11.44;68.66;98476.72;4999099;28;20072;-80
2023/03/13 00:58:23;;;;;;;21.90;5.22;;;;;;;11.45;69.41;98474.91;4999110;28;20526;-80
2023/03/13 01:00:51;;;;;;;19.00;4.68;;;;;;;11.44;69.47;98484.59;5017198;28;20056;-80
2023/03/13 01:03:18;;;;;;;19.13;4.88;;;;;;;11.41;69.56;98470.84;5017088;28;20058;-80
2023/03/13 01:05:54;;;;;;;26.00;4.68;;;;;;;11.37;69.21;98465.00;5016583;28;20061;-80
2023/03/13 01:08:20;;;;;;;21.05;4.57;;;;;;;11.37;69.98;98451.00;5016723;28;20137;-80
2023/03/13 01:13:30;;;;;;;21.33;4.50;;;;;;;11.31;70.44;98453.16;5014486;28;20125;-80
2023/03/13 01:15:56;;;;;;;22.20;5.30;;;;;;;11.27;70.41;98435.09;5016200;28;20058;-80
2023/03/13 01:18:23;;;;;;;29.00;5.32;;;;;;;11.23;70.51;98437.16;5014784;28;20060;-81
2023/03/13 01:20:49;;;;;;;25.45;4.78;;;;;;;11.18;70.94;98432.25;5008637;28;20504;-81
2023/03/13 01:23:15;;;;;;;28.48;5.40;;;;;;;11.13;71.08;98415.13;5021243;28;20099;-80
2023/03/13 01:25:42;;;;;;;22.17;5.13;;;;;;;11.06;71.11;98409.53;5034556;28;20064;-80
2023/03/13 01:28:08;;;;;;;22.52;4.88;;;;;;;11.02;71.45;98413.38;5016003;28;20103;-80
2023/03/13 01:30:35;;;;;;;26.42;4.65;;;;;;;10.95;71.66;98398.06;5017301;28;20050;-80
2023/03/13 01:33:02;;;;;;;25.27;4.82;;;;;;;10.92;72.02;98392.22;5035899;28;20080;-80
2023/03/13 01:35:28;;;;;;;22.83;5.43;;;;;;;10.88;72.15;98382.91;5033346;28;20061;-81
2023/03/13 01:37:54;;;;;;;23.25;4.50;;;;;;;10.85;72.42;98381.38;5032565;28;20140;-80
2023/03/13 01:40:21;;;;;;;21.60;4.43;;;;;;;10.80;72.56;98371.19;5033272;28;20053;-80
2023/03/13 01:42:52;;;;;;;21.33;5.03;;;;;;;10.77;72.95;98360.91;5033012;28;20053;-81
2023/03/13 01:45:57;;;;;;;23.73;5.22;;;;;;;10.71;73.11;98356.16;5032583;28;20057;-80
2023/03/13 01:48:34;;;;;;;20.83;4.55;;;;;;;10.71;73.38;98347.41;5032394;28;20491;-80
2023/03/13 01:51:03;;;;;;;21.33;5.10;;;;;;;10.68;73.61;98338.81;5032967;28;20054;-80
2023/03/13 01:53:33;;;;;;;21.58;5.43;;;;;;;10.67;73.51;98331.88;5032887;28;20053;-80
2023/03/13 01:56:03;;;;;;;21.90;4.82;;;;;;;10.66;73.72;98324.91;5032403;28;20054;-80
2023/03/13 01:58:30;;;;;;;18.65;4.47;;;;;;;10.64;73.93;98326.00;5032782;28;20492;-81
2023/03/13 02:00:57;;;;;;;21.98;4.55;;;;;;;10.63;74.19;98314.66;5032649;28;20068;-80
2023/03/13 02:03:26;;;;;;;20.45;4.80;;;;;;;10.61;74.47;98305.22;5023363;28;20103;-80
2023/03/13 02:05:55;;;;;;;25.75;4.70;;;;;;;10.59;74.47;98294.81;5032239;28;20053;-81
2023/03/13 02:08:28;;;;;;;22.58;5.22;;;;;;;10.57;74.91;98293.28;5030922;28;20474;-81
2023/03/13 02:11:12;;;;;;;;;;;;;;;10.57;74.52;98277.50;5032931;28;20049;-80
2023/03/13 02:13:39;;;;;;;24.50;4.65;;;;;;;10.58;74.83;98266.00;5032546;28;19967;-80
2023/03/13 02:16:06;;;;;;;24.38;4.55;;;;;;;10.58;75.10;98255.47;5030882;28;20104;-80
2023/03/13 02:18:35;;;;;;;18.83;4.03;;;;;;;10.54;75.20;98246.97;5032047;28;20128;-80
2023/03/13 02:21:10;;;;;;;23.88;5.22;;;;;;;10.51;75.67;98236.72;5032356;28;20107;-80
2023/03/13 02:23:47;;;;;;;25.55;5.30;;;;;;;10.51;75.77;98218.31;5030830;28;20053;-80
2023/03/13 02:26:14;;;;;;;27.17;5.05;;;;;;;10.53;75.90;98217.22;5032130;28;20107;-80
2023/03/13 02:28:41;;;;;;;23.73;4.30;;;;;;;10.52;76.11;98205.03;5031868;28;20053;-80
2023/03/13 02:31:09;;;;;;;22.08;4.88;;;;;;;10.52;76.26;98206.81;5030796;28;20049;-80
2023/03/13 02:33:40;;;;;;;23.70;5.35;;;;;;;10.52;76.39;98199.75;5030738;28;20141;-80
2023/03/13 02:36:07;;;;;;;23.38;4.47;;;;;;;10.55;76.21;98196.88;5030355;28;20464;-80
2023/03/13 02:38:41;;;;;;;20.02;4.28;;;;;;;10.56;76.52;98187.19;5031727;28;20049;-80
2023/03/13 02:41:08;;;;;;;27.50;5.07;;;;;;;10.58;76.66;98179.16;5032209;28;20057;-80
2023/03/13 02:43:37;;;;;;;25.98;4.65;;;;;;;10.57;76.83;98172.25;5032201;28;20049;-80
2023/03/13 02:46:11;;;;;;;21.88;4.75;;;;;;;10.56;77.17;98166.13;5031362;28;20677;-80
2023/03/13 02:48:43;;;;;;;25.83;4.40;;;;;;;10.54;77.21;98163.63;5031457;28;20091;-80
2023/03/13 02:51:40;;;;;;;22.83;4.70;;;;;;;10.54;77.54;98153.09;5031663;28;20523;-81
2023/03/13 02:54:15;;;;;;;24.80;5.15;;;;;;;10.55;77.50;98159.22;5030622;28;20786;-80
2023/03/13 02:56:44;;;;;;;19.98;4.38;;;;;;;10.54;77.75;98155.72;5031123;28;20057;-81
2023/03/13 02:59:11;;;;;;;21.13;5.13;;;;;;;10.54;77.63;98153.09;5030543;28;20057;-81
2023/03/13 03:01:37;;;;;;;28.30;5.38;;;;;;;10.57;77.77;98145.94;5030813;28;20060;-81
2023/03/13 03:04:04;;;;;;;17.08;4.18;;;;;;;10.56;77.98;98145.09;5030693;28;20053;-81
2023/03/13 03:06:31;;;;;;;20.50;5.55;;;;;;;10.55;78.19;98144.25;5031559;28;20080;-81
2023/03/13 03:08:58;;;;;;;22.65;4.93;;;;;;;10.56;78.21;98126.66;5031841;28;20053;-81
2023/03/13 03:11:24;;;;;;;20.05;5.40;;;;;;;10.53;78.83;98124.28;5031505;28;20103;-81
2023/03/13 03:13:50;;;;;;;15.30;4.57;;;;;;;10.54;78.81;98125.94;5031784;28;20617;-81
2023/03/13 03:16:17;;;;;;;25.65;5.32;;;;;;;10.53;79.07;98106.72;5032171;28;20061;-81
2023/03/13 03:18:44;;;;;;;16.17;4.60;;;;;;;10.55;79.25;98127.63;5031368;28;20061;-81
2023/03/13 03:21:10;;;;;;;19.33;5.07;;;;;;;10.54;79.23;98105.75;5031323;28;20053;-81
2023/03/13 03:23:37;;;;;;;21.92;5.30;;;;;;;10.54;79.54;98097.84;5030798;28;20609;-81
2023/03/13 03:26:05;;;;;;;18.27;4.93;;;;;;;10.55;79.75;98096.88;5010648;28;20057;-81
2023/03/13 03:28:32;;;;;;;12.27;3.72;;;;;;;10.56;79.59;98087.22;5028103;28;20053;-81
2023/03/13 03:31:10;;;;;;;12.05;4.15;;;;;;;10.55;80.13;98090.81;5031142;28;20057;-81
2023/03/13 03:33:38;;;;;;;13.68;3.70;;;;;;;10.61;79.76;98078.94;5029400;28;20053;-81
2023/03/13 03:36:09;;;;;;;14.25;4.00;;;;;;;10.61;80.05;98068.41;5030348;28;20058;-81
2023/03/13 03:38:38;;;;;;;11.32;3.40;;;;;;;10.61;80.12;98061.34;5030853;28;20499;-81
2023/03/13 03:41:06;;;;;;;14.48;4.13;;;;;;;10.63;80.29;98072.56;5030792;28;20079;-81
2023/03/13 03:43:33;;;;;;;10.93;3.20;;;;;;;10.63;80.51;98051.53;5031110;28;20180;-81
2023/03/13 03:46:00;;;;;;;11.45;3.88;;;;;;;10.63;80.65;98041.00;5030472;28;20578;-82
2023/03/13 03:48:27;;;;;;;6.88;3.17;;;;;;;10.65;80.74;98038.25;5030510;28;20085;-81
2023/03/13 03:50:54;;;;;;;11.45;3.50;;;;;;;10.66;80.76;98037.28;5030701;28;20127;-82
2023/03/13 03:53:20;;;;;;;11.02;3.58;;;;;;;10.67;81.14;98025.78;5030563;28;20092;-83
2023/03/13 03:55:46;;;;;;;9.57;3.85;;;;;;;10.68;81.15;98053.75;5024163;28;20050;-82
2023/03/13 03:58:13;;;;;;;8.43;3.25;;;;;;;10.70;81.08;98033.41;5028650;28;20069;-82
2023/03/13 04:00:43;;;;;;;9.55;3.50;;;;;;;10.71;81.44;98027.19;5030685;28;20450;-82
2023/03/13 04:03:10;;;;;;;7.75;3.80;;;;;;;10.74;81.15;98019.03;5030521;28;20503;-82
2023/03/13 04:05:39;;;;;;;10.02;3.83;;;;;;;10.77;80.94;98039.00;5030150;28;20053;-83
2023/03/13 04:08:07;;;;;;;8.80;3.80;;;;;;;10.77;81.54;98020.56;5030246;28;20061;-83
2023/03/13 04:10:33;;;;;;;8.07;3.92;;;;;;;10.79;81.72;98016.00;5031037;28;20053;-83
2023/03/13 04:13:02;;;;;;;8.98;3.83;;;;;;;10.80;81.60;98026.38;5030140;28;20053;-83
2023/03/13 04:15:29;;;;;;;6.70;3.55;;;;;;;10.86;81.32;98024.19;5030212;28;20056;-82
2023/03/13 04:17:55;;;;;;;12.00;3.95;;;;;;;10.87;81.72;98031.16;5029987;28;20053;-83
2023/03/13 04:20:22;;;;;;;7.88;3.97;;;;;;;10.87;81.79;98015.34;5026213;28;20571;-83
2023/03/13 04:22:49;;;;;;;8.77;4.55;;;;;;;10.89;81.85;98019.50;5009259;28;20073;-83
2023/03/13 04:25:16;;;;;;;10.25;4.93;;;;;;;10.91;81.97;98011.47;5010733;28;20057;-82
2023/03/13 04:27:42;;;;;;;10.52;4.60;;;;;;;10.95;82.00;98012.84;5010390;28;20060;-83
2023/03/13 04:30:09;;;;;;;12.23;5.18;;;;;;;10.95;82.21;98008.44;5010510;28;20129;-82
2023/03/13 04:32:36;;;;;;;9.60;6.03;;;;;;;10.95;82.33;98005.81;5010397;28;20061;-82
2023/03/13 04:35:03;;;;;;;9.93;5.88;;;;;;;10.99;82.58;98003.72;5010093;28;20088;-82
2023/03/13 04:37:29;;;;;;;13.63;7.00;;;;;;;11.02;82.63;97987.69;5010217;28;20074;-82
2023/03/13 04:39:56;;;;;;;10.57;7.18;;;;;;;11.05;82.77;97982.16;5010399;28;20050;-83
2023/03/13 04:42:22;;;;;;;10.55;7.10;;;;;;;11.07;82.92;97985.47;5010371;28;20419;-83
2023/03/13 04:44:49;;;;;;;12.20;7.53;;;;;;;11.12;82.76;97989.50;5008801;28;20496;-82
2023/03/13 04:47:15;;;;;;;13.13;8.05;;;;;;;11.15;82.82;97986.59;5008653;28;20497;-82
2023/03/13 04:49:42;;;;;;;10.07;8.93;;;;;;;11.17;83.30;97982.00;5010052;28;20053;-82
2023/03/13 04:52:08;;;;;;;15.55;10.63;;;;;;;11.17;83.59;97990.75;5010496;28;20077;-82
2023/03/13 04:54:35;;;;;;;15.25;10.48;;;;;;;11.21;83.81;97984.25;5010393;28;20062;-82
2023/03/13 04:57:01;;;;;;;18.25;10.20;;;;;;;11.26;83.83;97983.88;5009587;28;20050;-82
2023/03/13 04:59:28;;;;;;;15.40;10.43;;;;;;;11.33;83.67;97963.88;5010148;28;20058;-81
2023/03/13 05:01:54;;;;;;;13.43;10.13;;;;;;;11.37;83.63;97974.16;5010335;28;20154;-81
2023/03/13 05:04:21;;;;;;;13.88;11.13;;;;;;;11.39;83.76;97965.16;5009965;28;20432;-82
2023/03/13 05:06:47;;;;;;;16.55;11.50;;;;;;;11.42;83.91;97964.03;5009470;28;20508;-81
2023/03/13 05:09:14;;;;;;;15.38;11.05;;;;;;;11.46;83.90;97952.25;5008852;28;20065;-82
2023/03/13 05:11:41;;;;;;;15.27;10.55;;;;;;;11.51;83.78;97946.59;5012639;28;20058;-81
2023/03/13 05:14:10;;;;;;;16.23;11.52;;;;;;;11.55;83.61;97955.88;5013989;28;20057;-82
2023/03/13 05:16:37;;;;;;;17.85;11.95;;;;;;;11.58;83.64;97956.44;5012914;28;20050;-82
2023/03/13 05:19:04;;;;;;;13.27;11.05;;;;;;;11.60;84.26;97969.47;5012495;28;20062;-81
2023/03/13 05:21:31;;;;;;;12.75;11.32;;;;;;;11.65;83.96;97934.78;5013656;28;20057;-81
2023/03/13 05:23:57;;;;;;;14.15;10.98;;;;;;;11.67;84.21;97936.28;5013964;28;20436;-81
2023/03/13 05:26:23;;;;;;;13.88;10.68;;;;;;;11.71;84.27;97935.03;5013377;28;20443;-81
2023/03/13 05:28:50;;;;;;;13.25;11.07;;;;;;;11.76;84.41;97918.81;5013553;28;20062;-82
2023/03/13 05:31:16;;;;;;;13.68;11.15;;;;;;;11.79;84.47;97921.19;5013423;28;20060;-82
2023/03/13 05:33:43;;;;;;;12.45;9.95;;;;;;;11.83;84.24;97925.19;5013805;28;20389;-81
2023/03/13 05:36:10;;;;;;;12.70;11.32;;;;;;;11.86;84.26;97914.34;5011750;28;20060;-81
2023/03/13 05:38:36;;;;;;;12.90;10.55;;;;;;;11.89;84.72;97915.06;5011993;28;20579;-82
2023/03/13 05:41:03;;;;;;;15.00;11.77;;;;;;;11.91;84.86;97928.91;5012028;28;20104;-81
2023/03/13 05:43:29;;;;;;;12.00;10.75;;;;;;;11.94;85.14;97918.09;5013700;28;20057;-82
2023/03/13 05:45:56;;;;;;;11.93;10.23;;;;;;;11.99;85.17;97905.31;5011453;28;20065;-81
2023/03/13 05:48:22;;;;;;;13.57;10.15;;;;;;;12.03;84.92;97919.88;5012978;28;20137;-81
2023/03/13 05:50:49;;;;;;;11.25;9.35;;;;;;;12.03;85.40;97924.34;5016510;28;20455;-82
2023/03/13 05:53:15;;;;;;;11.02;9.07;;;;;;;12.10;85.73;97906.97;5023224;28;20041;-81
2023/03/13 05:55:42;;;;;;;9.30;8.02;;;;;;;12.17;85.14;97916.00;5025380;28;20057;-81
2023/03/13 05:58:09;;;;;;;8.77;7.88;;;;;;;12.21;85.14;97909.47;5032439;28;20053;-81
2023/03/13 06:00:35;;;;;;;10.02;7.93;;;;;;;12.26;84.88;97922.19;5031379;28;20057;-81
2023/03/13 06:03:01;;;;;;;7.68;6.93;;;;;;;12.28;85.21;97909.72;5032700;28;20053;-80
2023/03/13 06:05:28;;;;;;;10.00;7.22;;;;;;;12.31;85.43;97896.25;5031086;28;20061;-80
2023/03/13 06:07:54;;;;;;;9.60;7.20;;;;;;;12.33;85.67;97912.75;5015011;28;20061;-81
2023/03/13 06:10:21;;;;;;;7.13;6.22;;;;;;;12.39;85.79;97906.06;5012522;28;20046;-80
2023/03/13 06:12:53;;;;;;;6.43;5.72;;;;;;;12.45;85.51;97886.19;5011199;28;20064;-80
2023/03/13 06:15:20;;;;;;;8.93;5.60;;;;;;;12.49;85.67;97903.38;5012100;28;20054;-80
2023/03/13 06:17:47;;;;;;;8.88;5.05;;;;;;;12.54;85.46;97909.06;5010969;28;20050;-81
2023/03/13 06:20:14;;;;;;;5.80;4.97;;;;;;;12.59;85.45;97900.69;5010793;28;20428;-82
2023/03/13 06:22:41;;;;;;;7.32;4.63;;;;;;;12.65;85.47;97902.75;5022097;28;20049;-80
2023/03/13 06:25:08;;;;;;;6.05;4.85;;;;;;;12.68;85.47;97897.19;5031498;28;20053;-80
2023/03/13 06:27:34;;;;;;;5.65;4.70;;;;;;;12.71;85.21;97911.88;5031542;28;20053;-81
2023/03/13 06:30:02;;;;;;;8.55;4.85;;;;;;;12.74;85.49;97904.50;5032262;28;20103;-81
2023/03/13 06:32:28;;;;;;;8.48;5.13;;;;;;;12.78;85.34;97918.22;5031942;28;20570;-81
2023/03/13 06:34:55;;;;;;;5.50;4.70;;;;;;;12.83;85.07;97900.16;5032225;28;20127;-80
2023/03/13 06:37:21;;;;;;;6.88;5.20;;;;;;;12.88;84.94;97878.56;5029519;28;20098;-80
2023/03/13 06:39:48;;;;;;;7.03;4.80;;;;;;;12.95;84.71;97894.66;5031598;28;20522;-80
2023/03/13 06:42:14;;;;;;;7.57;4.93;;;;;;;12.96;84.56;97899.78;5031597;28;20065;-80
2023/03/13 06:44:41;;;;;;;6.30;4.95;;;;;;;12.99;84.35;97899.50;5032010;28;20055;-80
2023/03/13 06:47:07;;;;;;;5.80;5.15;;;;;;;13.03;84.24;97902.66;5029724;28;20496;-80
2023/03/13 06:49:34;;;;;;;9.35;5.28;;;;;;;13.05;84.32;97892.78;5030321;28;20063;-80
2023/03/13 06:52:01;;;;;;;7.35;4.63;;;;;;;13.09;84.31;97901.22;5031613;28;20100;-80
2023/03/13 06:54:27;;;;;;;7.20;5.30;;;;;;;13.12;84.22;97887.75;5030758;28;20332;-80
2023/03/13 06:56:54;;;;;;;8.43;5.28;;;;;;;13.15;84.12;97914.66;5020179;28;20049;-81
2023/03/13 06:59:20;;;;;;;6.80;4.63;;;;;;;13.19;84.07;97896.69;5031379;28;20553;-81
2023/03/13 07:01:47;;;;;;;8.80;4.85;;;;;;;13.21;83.77;97912.41;5020366;28;20046;-81
2023/03/13 07:04:13;;;;;;;6.05;5.10;;;;;;;13.25;83.82;97908.47;5022718;28;20073;-80
2023/03/13 07:06:40;;;;;;;7.18;5.03;;;;;;;13.26;83.73;97899.56;5030391;28;20104;-80
2023/03/13 07:09:06;;;;;;;8.45;5.57;;;;;;;13.30;83.71;97903.56;5031300;28;20077;-81
2023/03/13 08:13:02;;;;;;;5.80;3.67;;;;;;;13.96;80.46;97855.69;5063714;23;20140;-75
2023/03/13 08:15:29;;;;;;;8.35;4.18;;;;;;;13.94;79.90;97855.84;5029596;28;20095;-75
2023/03/13 08:17:56;;;;;;;10.32;4.07;;;;;;;13.96;80.42;97868.91;5030501;28;20089;-75
2023/03/13 08:20:22;;;;;;;10.27;3.60;;;;;;;14.01;79.97;97884.31;5030541;28;20111;-75
2023/03/13 08:22:49;;;;;;;9.23;3.90;;;;;;;14.03;79.83;97858.53;5030787;28;20057;-75
2023/03/13 08:25:16;;;;;;;10.50;4.00;;;;;;;14.06;80.06;97850.28;5030602;28;20055;-76
2023/03/13 08:27:42;;;;;;;8.43;3.85;;;;;;;14.09;80.00;97865.84;5030031;28;20046;-75
2023/03/13 08:30:10;;;;;;;6.43;3.55;;;;;;;14.12;79.80;97876.09;5013058;28;20061;-75
2023/03/13 08:32:37;;;;;;;8.98;3.38;;;;;;;14.14;79.91;97878.59;5030977;28;20053;-76
2023/03/13 08:35:05;;;;;;;9.45;3.95;;;;;;;14.12;79.96;97847.00;5030075;28;20061;-76
2023/03/13 08:37:31;;;;;;;6.95;3.00;;;;;;;14.14;79.70;97844.22;5030409;28;20093;-75
2023/03/13 08:39:58;;;;;;;9.38;3.60;;;;;;;14.18;79.61;97862.28;5030531;28;20088;-75
2023/03/13 08:42:24;;;;;;;9.07;3.08;;;;;;;14.19;79.37;97863.06;5030747;28;20060;-75
2023/03/13 08:44:51;;;;;;;7.63;3.00;;;;;;;14.22;79.22;97885.75;5031721;28;20052;-75
2023/03/13 08:47:17;;;;;;;5.22;3.20;;;;;;;14.25;79.31;97870.41;5034027;28;20144;-75
2023/03/13 08:49:44;;;;;;;6.68;3.10;;;;;;;14.28;79.16;97875.34;5034661;28;20372;-75
2023/03/13 08:52:10;;;;;;;6.90;3.17;;;;;;;14.30;79.11;97864.63;5034556;28;20140;-75
2023/03/13 08:54:37;;;;;;;4.43;3.05;;;;;;;14.33;79.11;97861.66;5034400;28;20099;-76
2023/03/13 08:57:04;;;;;;;5.38;2.90;;;;;;;14.36;78.98;97887.81;5033837;28;20052;-75
2023/03/13 08:59:30;;;;;;;5.07;2.83;;;;;;;14.39;79.39;97855.72;5034230;28;20056;-75
2023/03/13 09:01:57;;;;;;;5.95;3.30;;;;;;;14.41;79.19;97869.66;5016489;28;20095;-75
2023/03/13 09:04:23;;;;;;;6.32;2.92;;;;;;;14.45;79.22;97855.09;5034401;28;20100;-75
2023/03/13 09:06:50;;;;;;;7.68;3.28;;;;;;;14.48;79.27;97856.59;5033762;28;20052;-75
2023/03/13 09:09:17;;;;;;;7.43;3.05;;;;;;;14.51;78.58;97873.97;5034153;28;20055;-75
2023/03/13 09:11:43;;;;;;;6.05;3.08;;;;;;;14.50;78.04;97864.38;5034011;28;20067;-74
2023/03/13 09:14:10;;;;;;;6.43;2.88;;;;;;;14.53;78.60;97854.28;5033980;28;20064;-75
2023/03/13 09:16:36;;;;;;;6.93;3.03;;;;;;;14.53;78.65;97862.22;5033220;28;20060;-75
2023/03/13 09:19:03;;;;;;;10.57;2.70;;;;;;;14.55;78.78;97873.47;5034056;28;20049;-75
2023/03/13 09:21:32;;;;;;;8.10;2.90;;;;;;;14.55;77.98;97872.66;5034235;28;20128;-75
2023/03/13 09:24:00;;;;;;;7.75;2.75;;;;;;;14.59;78.07;97858.94;5033888;28;20065;-75
2023/03/13 09:26:27;;;;;;;5.65;2.55;;;;;;;14.63;78.54;97872.69;5033361;28;20092;-75
2023/03/13 09:28:54;;;;;;;6.22;2.65;;;;;;;14.65;78.85;97844.22;5033907;28;20469;-75
2023/03/13 09:31:40;;;;;;;5.50;2.78;;;;;;;14.69;75.65;97850.84;5016268;28;20050;-75
2023/03/13 09:34:07;;;;;;;10.57;3.75;;;;;;;14.81;78.83;97838.16;5033533;28;20057;-75
2023/03/13 09:36:33;;;;;;;5.90;2.67;;;;;;;14.88;78.35;97842.84;5033102;28;20065;-76
2023/03/13 09:39:00;;;;;;;6.45;2.70;;;;;;;14.97;78.26;97849.81;5033553;28;20049;-75
2023/03/13 09:41:54;;;;;;;4.55;2.10;;;;;;;14.99;72.87;97837.19;5033672;28;20069;-75
2023/03/13 09:44:34;;;;;;;7.40;2.80;;;;;;;15.09;73.58;97847.66;5033398;28;20061;-75
2023/03/13 09:47:18;;;;;;;6.90;2.45;;;;;;;15.18;75.64;97849.31;5032921;28;20041;-76
2023/03/13 09:49:54;;;;;;;7.85;2.60;;;;;;;15.22;74.91;97834.75;5033288;28;20046;-75
2023/03/13 09:52:26;;;;;;;6.45;2.58;;;;;;;15.26;74.30;97853.81;5033461;28;20075;-76
2023/03/13 09:55:00;;;;;;;7.15;2.85;;;;;;;15.30;75.17;97830.44;5033098;28;20045;-75
2023/03/13 09:57:36;;;;;;;7.03;2.60;;;;;;;15.31;74.18;97827.63;5032140;28;20077;-75
2023/03/13 10:00:31;;;;;;;5.70;2.67;;;;;;;15.32;72.10;97847.84;5015519;28;20143;-76
2023/03/13 10:03:07;;;;;;;7.85;2.70;;;;;;;15.41;75.51;97822.16;5033413;28;20144;-75
2023/03/13 10:05:34;;;;;;;9.63;3.35;;;;;;;15.48;76.12;97824.97;5032897;28;20140;-75
2023/03/13 10:08:14;;;;;;;6.88;2.63;;;;;;;15.53;73.36;97843.03;5032544;28;20064;-75
2023/03/13 10:10:56;;;;;;;7.63;2.85;;;;;;;15.62;73.85;97828.75;5032829;28;20075;-75
2023/03/13 10:13:37;;;;;;;9.05;2.33;;;;;;;15.71;73.38;97817.16;5033104;28;20053;-76
2023/03/13 10:16:21;;;;;;;6.30;2.70;;;;;;;15.79;72.42;97818.97;5032595;28;20080;-76
2023/03/13 10:18:54;;;;;;;7.30;2.70;;;;;;;15.90;72.81;97825.72;5032689;28;20048;-76
2023/03/13 10:21:23;;;;;;;7.53;2.72;;;;;;;15.97;74.05;97826.75;5032765;28;20397;-76
2023/03/13 10:24:00;;;;;;;5.57;2.70;;;;;;;15.99;70.80;97819.44;5032927;28;20138;-76
2023/03/13 10:26:31;;;;;;;7.85;2.40;;;;;;;16.02;72.99;97842.16;5032755;28;20068;-77
2023/03/13 10:29:11;;;;;;;6.68;2.13;;;;;;;16.01;71.95;97811.31;5032696;28;20103;-76
2023/03/13 10:31:38;;;;;;;5.03;2.70;;;;;;;15.99;72.60;97800.84;5032964;28;20076;-76
2023/03/13 10:34:10;;;;;;;6.80;2.10;;;;;;;15.99;73.21;97830.06;5032680;28;20103;-76
2023/03/13 10:36:44;;;;;;;3.60;2.10;;;;;;;15.99;70.29;97794.72;5032149;28;20057;-76
2023/03/13 10:39:20;;;;;;;5.47;2.00;;;;;;;16.01;69.88;97848.47;5032937;28;20049;-77
2023/03/13 10:42:08;;;;;;;12.05;2.92;;;;;;;15.98;69.21;97817.78;5015144;28;20141;-76
2023/03/13 10:44:34;;;;;;;7.97;2.35;;;;;;;16.08;75.20;97803.50;5032572;28;20046;-77
2023/03/13 10:47:03;;;;;;;7.90;2.67;;;;;;;16.15;74.73;97817.75;5014271;28;20049;-77
2023/03/13 10:49:31;;;;;;;5.55;2.20;;;;;;;16.23;75.11;97809.72;5030967;28;20049;-77
2023/03/13 10:52:03;;;;;;;6.85;2.60;;;;;;;16.32;72.94;97825.59;5041896;28;20412;-77
2023/03/13 10:54:34;;;;;;;6.95;2.38;;;;;;;16.39;73.90;97800.88;5048567;28;20053;-78
2023/03/13 10:57:29;;;;;;;7.05;2.58;;;;;;;16.45;69.26;97806.47;5034055;28;20052;-78
2023/03/13 10:59:56;;;;;;;9.38;2.70;;;;;;;16.52;72.26;97824.19;5049705;28;20053;-78
2023/03/13 11:02:43;;;;;;;5.25;2.05;;;;;;;16.49;64.31;97791.84;5042372;28;20067;-78
2023/03/13 11:05:23;;;;;;;4.35;2.15;;;;;;;16.53;65.74;97782.53;5031660;28;20060;-78
2023/03/13 11:07:51;;;;;;;6.30;2.30;;;;;;;16.59;70.88;97775.72;5031748;28;20512;-78
2023/03/13 11:10:28;;;;;;;4.15;2.40;;;;;;;16.61;71.22;97777.19;5031868;28;20388;-77
2023/03/13 11:12:57;;;;;;;7.25;2.72;;;;;;;16.67;72.24;97768.50;5031950;28;20053;-78
2023/03/13 11:15:33;;;;;;;4.97;2.20;;;;;;;16.77;69.04;97746.19;5005711;28;20058;-78
2023/03/13 11:18:11;;;;;;;7.47;2.20;;;;;;;16.89;69.53;97752.72;5014006;28;20073;-78
2023/03/13 11:20:39;;;;;;;4.20;1.80;;;;;;;17.03;70.20;97759.13;5031716;28;20080;-78
2023/03/13 11:23:09;;;;;;;4.82;1.70;;;;;;;17.16;66.37;97773.66;5014117;28;20064;-78
2023/03/13 11:25:42;;;;;;;4.97;1.63;;;;;;;17.25;66.05;97750.47;5029507;28;20045;-78
2023/03/13 11:28:38;;;;;;;3.40;1.60;;;;;;;17.29;63.74;97747.28;5019979;28;20048;-78
2023/03/13 11:31:29;;;;;;;5.57;1.73;;;;;;;17.37;62.96;97732.25;5024530;28;20053;-78
2023/03/13 11:34:24;;;;;;;4.95;1.50;;;;;;;17.34;58.13;97741.41;5027540;28;20409;-78
2023/03/13 11:37:04;;;;;;;5.38;1.75;;;;;;;17.39;60.63;97754.19;5021149;28;20688;-78
2023/03/13 11:39:37;;;;;;;3.65;1.60;;;;;;;17.40;64.70;97743.38;5021649;28;20494;-78
2023/03/13 11:42:38;;;;;;;5.60;1.67;;;;;;;17.36;61.49;97725.28;5031477;28;20117;-78
2023/03/13 11:45:35;;;;;;;6.25;1.60;;;;;;;17.31;58.59;97731.16;4963247;28;20157;-78
2023/03/13 11:48:08;;;;;;;5.13;1.90;;;;;;;17.37;64.70;97732.25;5030794;28;20060;-78
2023/03/13 11:50:52;;;;;;;4.03;1.42;;;;;;;17.45;69.03;97716.19;5030894;28;20469;-78
2023/03/13 11:53:19;;;;;;;2.30;1.45;;;;;;;17.53;68.19;97708.13;5031396;28;20056;-78
2023/03/13 11:55:55;;;;;;;11.52;1.85;;;;;;;17.63;67.86;97721.16;5030466;28;20049;-78
2023/03/13 11:58:41;;;;;;;5.57;1.67;;;;;;;17.66;59.52;97712.00;5030763;28;20059;-78
2023/03/13 12:01:11;;;;;;;4.35;1.90;;;;;;;17.73;64.71;97720.06;5030864;28;20410;-78
2023/03/13 12:03:50;;;;;;;6.05;2.05;;;;;;;17.73;64.33;97710.25;5020867;28;20041;-79
2023/03/13 12:06:31;;;;;;;7.50;2.13;;;;;;;17.70;58.56;97734.56;5029298;28;20060;-79
2023/03/13 12:09:15;;;;;;;4.22;1.77;;;;;;;17.71;60.73;97696.28;5019237;28;20104;-78
2023/03/13 12:12:02;;;;;;;5.32;1.58;;;;;;;17.67;57.85;97713.63;5014706;28;20050;-79
2023/03/13 12:14:49;;;;;;;3.35;1.35;;;;;;;17.72;58.85;97705.94;4996730;28;20045;-78
2023/03/13 12:17:41;;;;;;;3.95;1.95;;;;;;;17.75;57.77;97684.28;5021451;28;20052;-78
2023/03/13 12:20:19;;;;;;;2.25;1.38;;;;;;;17.85;61.48;97691.97;5030368;28;20161;-78
2023/03/13 12:23:17;;;;;;;2.67;1.40;;;;;;;17.88;60.32;97693.44;5030573;28;20059;-79
2023/03/13 12:25:49;;;;;;;4.50;1.73;;;;;;;17.89;63.06;97695.91;5007117;28;20050;-79
2023/03/13 12:28:42;;;;;;;4.57;1.70;;;;;;;17.85;57.80;97702.63;5029768;28;20052;-78
2023/03/13 12:31:25;;;;;;;4.68;1.30;;;;;;;17.84;58.54;97693.81;5030414;28;20409;-78
2023/03/13 12:34:13;;;;;;;2.00;1.30;;;;;;;17.94;59.30;97658.13;5030307;28;20449;-78
2023/03/13 12:36:48;;;;;;;3.97;1.60;;;;;;;18.13;62.95;97669.19;5023647;28;20363;-79
2023/03/13 12:39:51;;;;;;;1.95;1.40;;;;;;;18.26;55.26;97661.34;5030482;28;20527;-78
2023/03/13 12:42:28;;;;;;;2.15;1.50;;;;;;;18.52;61.28;97645.78;5012965;28;20099;-78
2023/03/13 12:44:57;;;;;;;2.45;1.42;;;;;;;18.67;64.09;97643.06;5030227;28;20050;-78
2023/03/13 12:48:08;;;;;;;2.55;1.35;;;;;;;18.62;54.68;97638.31;5030101;28;20490;-79
2023/03/13 12:50:37;;;;;;;2.30;1.35;;;;;;;18.70;62.33;97637.34;5023822;28;20057;-78